メインページ
METAR-TAF:

METAR-TAF

空港 :

アントファガスタ, チリ

セロ・モレノ国際空港

緯度: 23-26S, 経度: 070-26W, 海抜: 135m

現時点の気象観測

当レポートは19分前の02:00(UTC)に作成
の風 4kt
気温 15°C
湿度 82%
気圧 1015 hPa
視程10km以上
高度1300ftの千切れ雲あり

METAR: SCFA 010200Z 19004KT 9999 BKN013 15/12 Q1015 NOSIG

時間: 23:19 (02:19 UTC)

予報

当レポートは3時間49分前の22:30(UTC)に作成
予報は01日の 00時(UTC)から 01日の 24時(UTC)まで有効
の風 3kt
視程10km以上
高度1700ftの雲は散在している
01日の 04時(UTC)から 01日の 06時(UTC)まで徐々に
の風 5kt
高度1400ftの千切れ雲あり
01日の 15時(UTC)から 01日の 17時(UTC)まで徐々に
の風 12kt
高度1700ftの雲は散在している
01日の 21時(UTC)から 01日の 23時(UTC)まで徐々に
高度2000ftの千切れ雲あり

TAF: SCFA 302230Z 0100/0124 18003KT 9999 SCT017 TN13/0106Z TX18/0117Z BECMG 0104/0106 36005KT BKN014 BECMG 0115/0117 18012KT SCT017 BECMG 0121/0123 BKN020

4,000以上の空港の気象観測と天気予報(METAR報とTAF報)

利用可能な観測所は地図上に黄色い丸と赤い丸で示す。

丸の上にカーソルを重ねると観測所名を参照できる。

次にクリックすると気象観測と天気予報を参照できる。

マップの切り替え:黒色「×」印の緑ボタンをクリックして拡大、「-」印の緑ボタンをクリックして縮小、緑色の三角印をクリックして隣りの地図に切り替え


METAR-TAF: